Time;durP1;ratioP1;P1;durP2;ratioP2;P2;SDS_P1;SDS_P2;PMS_P1;PMS_P2;Temp;Humidity;BMP_temperature;BMP_pressure;BME280_temperature;BME280_humidity;BME280_pressure;Samples;Min_cycle;Max_cycle;Signal;HPM_P1;HPM_P2
2024/04/07 00:01:44;;;;;;;1.60;0.82;;;16.10;99.90;;;;;;5039392;28;20033;-72
2024/04/07 00:04:10;;;;;;;5.07;1.15;;;16.10;99.90;;;;;;5029276;28;20037;-72
2024/04/07 00:06:36;;;;;;;3.22;0.73;;;16.00;99.90;;;;;;5039816;28;20542;-74
2024/04/07 00:09:01;;;;;;;4.70;0.95;;;15.90;99.90;;;;;;5023851;28;20049;-72
2024/04/07 00:11:29;;;;;;;6.70;1.30;;;15.90;99.90;;;;;;5048191;28;20032;-72
2024/04/07 00:13:55;;;;;;;2.20;0.57;;;15.90;99.90;;;;;;5045680;28;20429;-72
2024/04/07 00:16:21;;;;;;;1.40;0.70;;;15.80;99.90;;;;;;5037307;28;20025;-72
2024/04/07 00:18:47;;;;;;;8.88;1.00;;;15.80;99.90;;;;;;5040847;28;20033;-71
2024/04/07 00:21:12;;;;;;;1.88;0.73;;;15.90;99.90;;;;;;5045074;28;20033;-72
2024/04/07 00:23:39;;;;;;;6.75;1.13;;;15.90;99.90;;;;;;5042262;28;20029;-75
2024/04/07 00:26:04;;;;;;;1.38;0.40;;;15.90;99.90;;;;;;5045232;28;20490;-71
2024/04/07 00:28:30;;;;;;;3.13;0.80;;;15.90;99.90;;;;;;5045575;28;20037;-73
2024/04/07 00:30:56;;;;;;;3.53;0.80;;;15.90;99.90;;;;;;5046677;28;20044;-71
2024/04/07 00:33:22;;;;;;;2.80;0.40;;;16.00;99.90;;;;;;5042467;28;20558;-71
2024/04/07 00:35:55;;;;;;;1.25;0.47;;;16.00;99.90;;;;;;5040449;28;20112;-73
2024/04/07 00:38:21;;;;;;;5.60;0.95;;;16.10;99.90;;;;;;5039263;28;20037;-73
2024/04/07 00:40:47;;;;;;;5.15;0.60;;;16.10;99.90;;;;;;5044489;28;20456;-71
2024/04/07 00:43:13;;;;;;;2.80;0.63;;;16.10;99.90;;;;;;5044327;28;20048;-71
2024/04/07 00:45:38;;;;;;;1.42;0.50;;;16.10;99.90;;;;;;5047411;28;20039;-73
2024/04/07 00:48:06;;;;;;;8.20;0.82;;;16.10;99.90;;;;;;5045947;28;20071;-68
2024/04/07 00:50:32;;;;;;;2.28;0.90;;;16.10;99.90;;;;;;5033483;28;20056;-71
2024/04/07 00:52:58;;;;;;;7.32;0.95;;;16.20;99.90;;;;;;5039185;28;20025;-71
2024/04/07 00:55:24;;;;;;;2.80;0.80;;;16.20;99.90;;;;;;5046756;28;20095;-72
2024/04/07 00:57:50;;;;;;;2.90;0.50;;;16.30;99.90;;;;;;5046725;28;20040;-73
2024/04/07 01:00:15;;;;;;;7.10;1.13;;;16.40;99.90;;;;;;5045832;28;20041;-72
2024/04/07 01:02:41;;;;;;;4.40;0.50;;;16.50;99.90;;;;;;5046275;28;20032;-73
2024/04/07 01:05:07;;;;;;;2.05;0.52;;;16.50;99.90;;;;;;5027436;28;20064;-73
2024/04/07 01:07:33;;;;;;;4.15;0.30;;;16.70;99.90;;;;;;5044053;28;20033;-73
2024/04/07 01:09:59;;;;;;;3.20;0.50;;;16.70;99.90;;;;;;5041150;28;20037;-72
2024/04/07 01:12:25;;;;;;;1.98;0.40;;;16.70;99.90;;;;;;5046051;28;20037;-71
2024/04/07 01:14:51;;;;;;;3.45;0.52;;;16.70;99.90;;;;;;5042025;28;20414;-73
2024/04/07 01:17:16;;;;;;;2.97;0.45;;;16.70;99.90;;;;;;5044874;28;20049;-73
2024/04/07 01:19:44;;;;;;;2.22;0.30;;;16.70;99.90;;;;;;5046184;28;20040;-73
2024/04/07 01:22:12;;;;;;;1.92;0.50;;;16.60;99.90;;;;;;5026090;28;20489;-73
2024/04/07 01:24:37;;;;;;;3.30;0.40;;;16.50;99.90;;;;;;5037517;28;20041;-75
2024/04/07 01:27:03;;;;;;;2.00;0.80;;;16.60;99.90;;;;;;5043980;28;20033;-71
2024/04/07 01:29:29;;;;;;;2.25;0.60;;;16.50;99.90;;;;;;5044903;28;20037;-73
2024/04/07 01:31:54;;;;;;;3.95;0.60;;;16.40;99.90;;;;;;5043491;28;20417;-73
2024/04/07 01:34:20;;;;;;;3.50;1.17;;;16.40;99.90;;;;;;5041168;28;20037;-73
2024/04/07 01:36:47;;;;;;;4.28;0.57;;;16.30;99.90;;;;;;5043189;28;20040;-73
2024/04/07 01:39:13;;;;;;;2.13;0.57;;;16.20;99.90;;;;;;5037416;28;20041;-73
2024/04/07 01:41:39;;;;;;;3.20;0.32;;;16.20;99.90;;;;;;5045278;28;20040;-74
2024/04/07 01:44:04;;;;;;;0.43;0.20;;;16.20;99.90;;;;;;5045047;28;20029;-74
2024/04/07 01:46:30;;;;;;;3.00;0.70;;;16.10;99.90;;;;;;5048324;28;20033;-72
2024/04/07 01:48:55;;;;;;;5.43;0.40;;;16.10;99.90;;;;;;5048355;28;20032;-73
2024/04/07 01:51:21;;;;;;;2.17;0.38;;;16.10;99.90;;;;;;5046854;28;20041;-71
2024/04/07 01:53:47;;;;;;;3.22;0.50;;;16.00;99.90;;;;;;5043488;28;20033;-72
2024/04/07 01:56:12;;;;;;;3.17;0.30;;;16.00;99.90;;;;;;5046502;28;20517;-72
2024/04/07 01:58:38;;;;;;;1.23;0.45;;;15.90;99.90;;;;;;5036087;28;20049;-73
2024/04/07 02:01:04;;;;;;;3.70;0.40;;;15.90;99.90;;;;;;5036871;28;20063;-72
2024/04/07 02:03:30;;;;;;;4.43;0.38;;;15.90;99.90;;;;;;5041348;28;20036;-72
2024/04/07 02:05:55;;;;;;;3.35;0.77;;;15.80;99.90;;;;;;5040399;28;20048;-73
2024/04/07 02:08:21;;;;;;;0.85;0.13;;;15.80;99.90;;;;;;5043177;28;20033;-71
2024/04/07 02:10:49;;;;;;;0.47;0.30;;;15.70;99.90;;;;;;5044041;28;20044;-71
2024/04/07 02:13:15;;;;;;;1.52;0.40;;;15.70;99.90;;;;;;5050208;28;20048;-71
2024/04/07 02:15:41;;;;;;;3.92;0.50;;;15.60;99.90;;;;;;5042051;28;20635;-73
2024/04/07 02:18:07;;;;;;;1.63;0.32;;;15.50;99.90;;;;;;5043285;28;20037;-72
2024/04/07 02:20:33;;;;;;;1.55;0.25;;;15.40;99.90;;;;;;5040987;28;20048;-72
2024/04/07 02:22:58;;;;;;;4.20;0.77;;;15.20;99.90;;;;;;5051643;28;20037;-72
2024/04/07 02:25:24;;;;;;;2.53;0.68;;;15.20;99.90;;;;;;5049533;28;20506;-75
2024/04/07 02:27:49;;;;;;;1.77;0.40;;;15.10;99.90;;;;;;5049615;28;20136;-72
2024/04/07 02:30:16;;;;;;;4.07;0.40;;;15.00;99.90;;;;;;5047397;28;20064;-71
2024/04/07 02:32:41;;;;;;;3.50;0.32;;;14.90;99.90;;;;;;5050322;28;20136;-71
2024/04/07 02:35:06;;;;;;;2.53;0.38;;;14.80;99.90;;;;;;5049307;28;20112;-74
2024/04/07 02:37:32;;;;;;;1.75;0.50;;;14.70;99.90;;;;;;5046856;28;20032;-71
2024/04/07 02:39:59;;;;;;;3.78;0.80;;;14.60;99.90;;;;;;5047537;28;20041;-72
2024/04/07 02:42:25;;;;;;;1.58;0.40;;;14.50;99.90;;;;;;5046919;28;20065;-73
2024/04/07 02:50:19;;;;;;;5.97;0.25;;;14.30;99.90;;;;;;5031418;28;20054;-71
2024/04/07 02:52:45;;;;;;;0.82;0.22;;;14.30;99.90;;;;;;5055428;28;20044;-71
2024/04/07 02:55:11;;;;;;;3.60;0.55;;;14.30;99.90;;;;;;5044082;28;20490;-70
2024/04/07 02:57:36;;;;;;;2.50;0.80;;;14.30;99.90;;;;;;5027991;28;20176;-71
2024/04/07 03:00:02;;;;;;;3.22;0.47;;;14.30;99.90;;;;;;5024688;28;20033;-72
2024/04/07 03:02:28;;;;;;;3.80;0.22;;;14.30;99.90;;;;;;5040889;28;20044;-73
2024/04/07 03:04:53;;;;;;;1.38;0.50;;;14.30;99.90;;;;;;5047919;28;20040;-73
2024/04/07 03:07:19;;;;;;;1.38;0.30;;;14.40;99.90;;;;;;5037053;28;20037;-72
2024/04/07 03:09:45;;;;;;;0.82;0.20;;;14.40;99.90;;;;;;5045811;28;20110;-70
2024/04/07 03:12:11;;;;;;;0.73;0.10;;;14.50;99.90;;;;;;5045563;28;20033;-73
2024/04/07 03:14:36;;;;;;;2.10;0.57;;;14.40;99.90;;;;;;5042839;28;20041;-72
2024/04/07 03:17:02;;;;;;;1.40;0.22;;;14.50;99.90;;;;;;5044657;28;20536;-72
2024/04/07 03:19:28;;;;;;;1.00;0.30;;;14.40;99.90;;;;;;5037136;28;20041;-73
2024/04/07 03:21:53;;;;;;;1.73;0.15;;;14.40;99.90;;;;;;5055688;28;20025;-72
2024/04/07 03:24:19;;;;;;;1.10;0.22;;;14.50;99.90;;;;;;5043954;28;20042;-72
2024/04/07 03:26:44;;;;;;;3.08;0.10;;;14.50;99.90;;;;;;5046011;28;20632;-70
2024/04/07 03:29:10;;;;;;;1.52;0.20;;;14.50;99.90;;;;;;5046618;28;20033;-73
2024/04/07 03:31:35;;;;;;;3.13;0.50;;;14.50;99.90;;;;;;5038096;28;20418;-73
2024/04/07 03:34:01;;;;;;;3.03;0.22;;;14.50;99.90;;;;;;5035304;28;20052;-73
2024/04/07 03:36:28;;;;;;;2.13;0.25;;;14.50;99.90;;;;;;5032297;28;20029;-73
2024/04/07 03:38:53;;;;;;;5.30;0.20;;;14.50;99.90;;;;;;5032581;28;20071;-73
2024/04/07 03:41:19;;;;;;;0.70;0.10;;;14.50;99.90;;;;;;5046118;28;20068;-72
2024/04/07 03:43:45;;;;;;;2.88;0.43;;;14.50;99.90;;;;;;5045464;28;20033;-68
2024/04/07 03:46:10;;;;;;;0.22;0.10;;;14.50;99.90;;;;;;5046933;28;20041;-73
2024/04/07 03:48:36;;;;;;;1.05;0.40;;;14.50;99.90;;;;;;5043410;28;20091;-71
2024/04/07 03:51:05;;;;;;;3.13;0.40;;;14.50;99.90;;;;;;5042063;28;20057;-73
2024/04/07 03:53:31;;;;;;;2.88;0.13;;;14.50;99.90;;;;;;5032746;28;20037;-72
2024/04/07 03:55:56;;;;;;;3.38;0.15;;;14.50;99.90;;;;;;5032349;28;20032;-73
2024/04/07 03:58:22;;;;;;;1.52;0.20;;;14.50;99.90;;;;;;5037275;28;20041;-72
2024/04/07 04:00:48;;;;;;;6.97;0.43;;;14.50;99.90;;;;;;5045143;28;20047;-71
2024/04/07 04:03:13;;;;;;;1.95;0.20;;;14.50;99.90;;;;;;5043882;28;20040;-72
2024/04/07 04:05:39;;;;;;;1.95;0.55;;;14.60;99.90;;;;;;5046441;28;20087;-72
2024/04/07 04:08:05;;;;;;;2.15;0.10;;;14.60;99.90;;;;;;5041228;28;20099;-73
2024/04/07 04:10:30;;;;;;;3.63;0.52;;;14.60;99.90;;;;;;5045812;28;20041;-73
2024/04/07 04:12:56;;;;;;;0.93;0.13;;;14.50;99.90;;;;;;5047169;28;20116;-73
2024/04/07 04:15:22;;;;;;;1.08;0.00;;;14.60;99.90;;;;;;5046005;28;20064;-72
2024/04/07 04:17:47;;;;;;;0.30;0.10;;;14.60;99.90;;;;;;5050328;28;20040;-70
2024/04/07 04:20:13;;;;;;;0.47;0.20;;;14.70;99.90;;;;;;5044772;28;20046;-73
2024/04/07 04:22:43;;;;;;;0.50;0.10;;;14.70;99.90;;;;;;5045763;28;20033;-74
2024/04/07 04:25:08;;;;;;;2.60;0.10;;;14.70;99.90;;;;;;5041429;28;20432;-71
2024/04/07 04:27:34;;;;;;;0.55;0.03;;;14.70;99.90;;;;;;5042121;28;20043;-73
2024/04/07 04:29:59;;;;;;;0.80;0.10;;;14.70;99.90;;;;;;5044498;28;20057;-71
2024/04/07 04:32:25;;;;;;;0.70;0.10;;;14.70;99.90;;;;;;5045071;28;20037;-72
2024/04/07 04:34:51;;;;;;;0.85;0.10;;;14.70;99.90;;;;;;5047022;28;20406;-71
2024/04/07 04:37:17;;;;;;;0.43;0.00;;;14.80;99.90;;;;;;5045243;28;20040;-72
2024/04/07 04:39:43;;;;;;;1.75;0.10;;;14.70;99.90;;;;;;5042607;28;20040;-74
2024/04/07 04:42:08;;;;;;;1.13;0.28;;;14.70;99.90;;;;;;5043239;28;20025;-73
2024/04/07 04:44:34;;;;;;;1.35;0.10;;;14.70;99.90;;;;;;5040286;28;20414;-72
2024/04/07 04:47:00;;;;;;;1.02;0.10;;;14.70;99.90;;;;;;5041690;28;20037;-72
2024/04/07 04:49:25;;;;;;;0.45;0.10;;;14.70;99.90;;;;;;5032965;28;20029;-73
2024/04/07 04:51:54;;;;;;;1.55;0.10;;;14.70;99.90;;;;;;5040252;28;20033;-70
2024/04/07 04:54:20;;;;;;;1.00;0.10;;;14.60;99.90;;;;;;5044306;28;20122;-72
2024/04/07 04:56:45;;;;;;;0.98;0.10;;;14.60;99.90;;;;;;5044826;28;20059;-69
2024/04/07 04:59:11;;;;;;;1.55;0.45;;;14.60;99.90;;;;;;5037251;28;20874;-73
2024/04/07 05:01:37;;;;;;;0.35;0.00;;;14.50;99.90;;;;;;5045602;28;20040;-73
2024/04/07 05:04:02;;;;;;;2.15;0.28;;;14.60;99.90;;;;;;5031897;28;20038;-72
2024/04/07 05:06:28;;;;;;;6.10;0.20;;;14.50;99.90;;;;;;5036140;28;20053;-73
2024/04/07 05:08:53;;;;;;;0.50;0.10;;;14.60;99.90;;;;;;5034703;28;20033;-72
2024/04/07 05:11:19;;;;;;;0.40;0.10;;;14.50;99.90;;;;;;5036134;28;20422;-73
2024/04/07 05:13:45;;;;;;;2.45;0.25;;;14.50;99.90;;;;;;5045337;28;20033;-73
2024/04/07 05:16:11;;;;;;;3.15;0.22;;;14.50;99.90;;;;;;5039261;28;20059;-73
2024/04/07 05:18:36;;;;;;;0.57;0.17;;;14.50;99.90;;;;;;5039817;28;20049;-73
2024/04/07 05:21:04;;;;;;;0.93;0.20;;;14.50;99.90;;;;;;5034298;28;20044;-70
2024/04/07 05:23:31;;;;;;;2.15;0.13;;;14.50;99.90;;;;;;5032373;28;20037;-73
2024/04/07 05:26:07;;;;;;;3.47;0.28;;;14.50;99.90;;;;;;5029140;28;20112;-72
2024/04/07 05:28:33;;;;;;;0.40;0.13;;;14.50;99.90;;;;;;5026626;28;20037;-73
2024/04/07 05:31:03;;;;;;;2.45;0.15;;;14.50;99.90;;;;;;5036460;28;20045;-73
2024/04/07 05:33:29;;;;;;;2.35;0.20;;;14.50;99.90;;;;;;5044832;28;20040;-73
2024/04/07 05:35:54;;;;;;;1.60;0.28;;;14.50;99.90;;;;;;5034100;28;20552;-72
2024/04/07 05:38:20;;;;;;;1.27;0.20;;;14.50;99.90;;;;;;5038711;28;20036;-73
2024/04/07 05:40:57;;;;;;;2.05;0.20;;;14.50;99.90;;;;;;5041751;28;20083;-72
2024/04/07 05:43:23;;;;;;;0.30;0.00;;;14.50;99.90;;;;;;5039888;28;20495;-72
2024/04/07 05:45:50;;;;;;;1.30;0.10;;;14.50;99.90;;;;;;5045676;28;20041;-73
2024/04/07 05:48:15;;;;;;;3.83;0.15;;;14.40;99.90;;;;;;5044892;28;20037;-73
2024/04/07 05:50:41;;;;;;;3.17;0.55;;;14.40;99.90;;;;;;5039204;28;20041;-73
2024/04/07 05:53:07;;;;;;;0.30;0.20;;;14.40;99.90;;;;;;5044628;28;20044;-72
2024/04/07 05:55:36;;;;;;;1.98;0.20;;;14.40;99.90;;;;;;5038790;28;20102;-73
2024/04/07 05:58:02;;;;;;;4.43;0.20;;;14.40;99.90;;;;;;5043203;28;20123;-73
2024/04/07 06:00:30;;;;;;;1.52;0.60;;;14.40;99.90;;;;;;5044402;28;20747;-72
2024/04/07 06:02:55;;;;;;;0.77;0.20;;;14.40;99.90;;;;;;5043280;28;20040;-73
2024/04/07 06:05:21;;;;;;;1.05;0.52;;;14.50;99.90;;;;;;5039528;28;20033;-72
2024/04/07 06:07:48;;;;;;;1.50;0.20;;;14.50;99.90;;;;;;5044267;28;20120;-70
2024/04/07 06:10:14;;;;;;;0.45;0.15;;;14.50;99.90;;;;;;5045589;28;20056;-73
2024/04/07 06:12:40;;;;;;;0.98;0.30;;;14.60;99.90;;;;;;5041445;28;20056;-73
2024/04/07 06:15:06;;;;;;;0.93;0.10;;;14.70;99.90;;;;;;5043017;28;20549;-73
2024/04/07 06:17:31;;;;;;;0.90;0.10;;;14.80;99.90;;;;;;5045754;28;20040;-74
2024/04/07 06:19:57;;;;;;;0.93;0.20;;;14.90;99.90;;;;;;5043734;28;20029;-73
2024/04/07 06:22:23;;;;;;;2.92;0.10;;;14.90;99.90;;;;;;5045544;28;20037;-72
2024/04/07 06:24:48;;;;;;;2.97;0.25;;;14.90;99.90;;;;;;5044006;28;20036;-72
2024/04/07 06:27:14;;;;;;;2.25;0.10;;;15.00;99.90;;;;;;5045032;28;20111;-72
2024/04/07 06:29:39;;;;;;;1.40;0.57;;;15.00;99.90;;;;;;5042616;28;20051;-73
2024/04/07 06:32:05;;;;;;;1.98;0.30;;;15.00;99.90;;;;;;5047588;28;20040;-73
2024/04/07 06:34:31;;;;;;;1.35;0.30;;;15.00;99.90;;;;;;5049569;28;20033;-73
2024/04/07 06:36:56;;;;;;;5.50;0.35;;;15.10;99.90;;;;;;5047663;28;20025;-72
2024/04/07 06:39:22;;;;;;;1.58;0.68;;;15.60;99.90;;;;;;5040357;28;20490;-71
2024/04/07 06:41:48;;;;;;;0.73;0.38;;;15.80;99.90;;;;;;5047237;28;20035;-72
2024/04/07 06:44:13;;;;;;;0.38;0.13;;;16.50;99.90;;;;;;5044595;28;20033;-72
2024/04/07 06:46:39;;;;;;;3.30;0.63;;;17.50;99.90;;;;;;5041744;28;20041;-73
2024/04/07 06:49:04;;;;;;;5.47;0.65;;;18.60;99.90;;;;;;5044734;28;20037;-72
2024/04/07 06:51:31;;;;;;;1.58;0.50;;;19.40;99.90;;;;;;5048413;28;20073;-73
2024/04/07 06:53:58;;;;;;;0.70;0.10;;;19.50;99.90;;;;;;5045575;28;20086;-72
2024/04/07 06:56:23;;;;;;;1.00;0.20;;;19.40;99.90;;;;;;5046859;28;20128;-74
2024/04/07 06:58:49;;;;;;;1.10;0.17;;;19.30;99.90;;;;;;5049016;28;20131;-73
2024/04/07 07:01:14;;;;;;;1.58;0.20;;;19.10;99.90;;;;;;5046105;28;20042;-72
2024/04/07 07:03:40;;;;;;;1.13;0.20;;;18.80;99.90;;;;;;5034022;28;20073;-74
2024/04/07 07:06:06;;;;;;;2.15;0.38;;;18.60;99.90;;;;;;5042544;28;20075;-71
2024/04/07 07:08:31;;;;;;;1.80;0.13;;;18.40;99.90;;;;;;5045157;28;20029;-72
2024/04/07 07:11:00;;;;;;;1.70;0.25;;;18.30;99.90;;;;;;5047276;28;20032;-71
2024/04/07 07:13:27;;;;;;;1.75;0.20;;;18.20;99.90;;;;;;5048419;28;20059;-73
2024/04/07 07:15:54;;;;;;;1.23;0.25;;;18.10;99.90;;;;;;5044771;28;20029;-74
2024/04/07 07:18:19;;;;;;;5.20;0.47;;;18.10;99.90;;;;;;5041896;28;20048;-73
2024/04/07 07:20:45;;;;;;;2.58;0.63;;;18.00;99.90;;;;;;5041817;28;20041;-71
2024/04/07 07:23:11;;;;;;;1.00;0.32;;;17.90;99.90;;;;;;5033150;28;20402;-75
2024/04/07 07:25:39;;;;;;;1.00;0.25;;;17.90;99.90;;;;;;5044322;28;20040;-73
2024/04/07 07:28:05;;;;;;;2.40;0.20;;;18.00;99.90;;;;;;5046301;28;20044;-71
2024/04/07 07:30:31;;;;;;;3.80;0.40;;;18.20;99.90;;;;;;5048596;28;20037;-71
2024/04/07 07:32:57;;;;;;;2.03;0.20;;;18.10;99.90;;;;;;5044023;28;20462;-73
2024/04/07 07:35:23;;;;;;;1.85;0.38;;;18.20;99.90;;;;;;5042651;28;20038;-72
2024/04/07 07:37:48;;;;;;;0.28;0.15;;;18.30;99.90;;;;;;5040038;28;20048;-70
2024/04/07 07:40:14;;;;;;;3.75;0.30;;;18.30;99.90;;;;;;5046280;28;20041;-71
2024/04/07 07:42:39;;;;;;;1.25;0.28;;;18.20;99.90;;;;;;5045163;28;20067;-75
2024/04/07 07:45:05;;;;;;;2.28;0.20;;;18.10;99.90;;;;;;5047459;28;20067;-75
2024/04/07 07:47:32;;;;;;;1.23;0.25;;;18.00;99.90;;;;;;5047808;28;20116;-72
2024/04/07 07:49:58;;;;;;;3.30;0.38;;;18.00;99.90;;;;;;5046733;28;20025;-73
2024/04/07 07:52:23;;;;;;;0.90;0.30;;;18.10;99.90;;;;;;5045312;28;20594;-74
2024/04/07 07:54:49;;;;;;;6.93;0.75;;;18.20;99.90;;;;;;5033407;28;20032;-72
2024/04/07 07:57:16;;;;;;;2.15;0.32;;;18.20;99.90;;;;;;5043647;28;20028;-71
2024/04/07 07:59:41;;;;;;;2.42;0.38;;;18.10;99.90;;;;;;5045211;28;20040;-75
2024/04/07 08:02:07;;;;;;;2.03;0.57;;;18.10;99.90;;;;;;5043546;28;20053;-72
2024/04/07 08:04:32;;;;;;;2.20;0.30;;;18.10;99.90;;;;;;5037340;28;20041;-73
2024/04/07 08:06:58;;;;;;;3.35;0.65;;;18.20;99.90;;;;;;5041564;28;20550;-75
2024/04/07 08:09:24;;;;;;;6.25;0.73;;;18.30;99.90;;;;;;5042649;28;20045;-73
2024/04/07 08:11:51;;;;;;;0.95;0.28;;;18.30;99.90;;;;;;5047298;28;20052;-73
2024/04/07 08:14:16;;;;;;;1.55;0.22;;;18.30;99.90;;;;;;5042635;28;20043;-72
2024/04/07 08:16:42;;;;;;;1.17;0.32;;;18.40;99.90;;;;;;5045540;28;20478;-72
2024/04/07 08:19:11;;;;;;;1.60;0.32;;;18.40;99.90;;;;;;5042274;28;20053;-72
2024/04/07 08:21:38;;;;;;;1.15;0.28;;;18.50;99.90;;;;;;5037263;28;20108;-72
2024/04/07 08:24:04;;;;;;;1.27;0.20;;;18.50;99.90;;;;;;5039977;28;20040;-72
2024/04/07 08:26:30;;;;;;;1.98;0.28;;;18.50;99.90;;;;;;5041123;28;20041;-75
2024/04/07 08:28:56;;;;;;;2.58;0.20;;;18.60;99.90;;;;;;5044696;28;20536;-72
2024/04/07 08:31:21;;;;;;;2.72;0.90;;;18.70;99.90;;;;;;5040764;28;20041;-71
2024/04/07 08:33:47;;;;;;;3.95;0.30;;;18.70;99.90;;;;;;5039070;28;20064;-72
2024/04/07 08:36:12;;;;;;;2.47;0.40;;;18.80;99.90;;;;;;5045368;28;20052;-73
2024/04/07 08:38:38;;;;;;;6.50;0.55;;;18.80;99.90;;;;;;5042887;28;20033;-73
2024/04/07 08:41:10;;;;;;;4.07;0.38;;;18.90;99.90;;;;;;5034659;28;20128;-74
2024/04/07 08:43:38;;;;;;;2.25;0.20;;;18.80;99.90;;;;;;5043926;28;20435;-73
2024/04/07 08:46:11;;;;;;;5.53;0.80;;;18.80;99.90;;;;;;5025136;28;20037;-73
2024/04/07 08:48:41;;;;;;;3.92;0.25;;;18.70;99.90;;;;;;5043743;28;20033;-73
2024/04/07 08:51:12;;;;;;;1.15;0.25;;;18.80;99.90;;;;;;5044173;28;20127;-73
2024/04/07 08:53:41;;;;;;;1.88;0.32;;;19.00;99.90;;;;;;5047982;28;20044;-73
2024/04/07 08:56:07;;;;;;;5.57;0.75;;;19.10;99.90;;;;;;5045623;28;20040;-73
2024/04/07 08:58:35;;;;;;;2.35;0.30;;;19.10;99.90;;;;;;5043979;28;20685;-73
2024/04/07 09:01:01;;;;;;;9.00;0.50;;;19.10;99.90;;;;;;5042720;28;20056;-76
2024/04/07 09:03:30;;;;;;;3.33;0.20;;;19.30;99.90;;;;;;5042235;28;20029;-74
2024/04/07 09:05:57;;;;;;;1.38;0.50;;;19.50;99.90;;;;;;5039753;28;20561;-74
2024/04/07 09:08:22;;;;;;;2.08;0.30;;;19.80;99.90;;;;;;5044325;28;20044;-72
2024/04/07 09:10:48;;;;;;;2.88;0.30;;;19.90;99.90;;;;;;5046536;28;20041;-74
2024/04/07 09:13:16;;;;;;;2.83;0.38;;;19.90;99.90;;;;;;5045407;28;20052;-77
2024/04/07 09:15:42;;;;;;;1.75;0.60;;;19.80;99.90;;;;;;5029162;28;20087;-75
2024/04/07 09:18:12;;;;;;;2.38;0.52;;;19.70;99.90;;;;;;5037714;28;20045;-74
2024/04/07 09:20:37;;;;;;;2.83;0.32;;;19.70;99.90;;;;;;5042126;28;20036;-73
2024/04/07 09:23:03;;;;;;;6.22;0.40;;;19.60;99.90;;;;;;5042423;28;20032;-74
2024/04/07 09:25:33;;;;;;;1.48;0.13;;;19.60;99.90;;;;;;5033169;28;20069;-74
2024/04/07 09:27:59;;;;;;;0.90;0.30;;;19.50;99.90;;;;;;5041281;28;20115;-74
2024/04/07 09:30:25;;;;;;;4.22;0.93;;;19.50;99.90;;;;;;5040365;28;20128;-74
2024/04/07 09:32:51;;;;;;;6.47;0.40;;;19.60;99.90;;;;;;5043145;28;20706;-73
2024/04/07 09:35:17;;;;;;;2.03;0.47;;;19.50;99.90;;;;;;5044760;28;20049;-72
2024/04/07 09:37:43;;;;;;;1.05;0.13;;;19.50;99.90;;;;;;5042632;28;20876;-75
2024/04/07 09:40:09;;;;;;;3.20;0.20;;;19.50;99.90;;;;;;5044697;28;20043;-74
2024/04/07 09:42:39;;;;;;;3.67;0.28;;;19.60;99.40;;;;;;5024485;28;20041;-73
2024/04/07 09:45:09;;;;;;;4.53;0.52;;;19.70;99.70;;;;;;5025452;28;20033;-71
2024/04/07 09:47:39;;;;;;;2.33;0.52;;;19.80;99.10;;;;;;5038045;28;20401;-73
2024/04/07 09:50:30;;;;;;;3.40;0.25;;;19.90;98.40;;;;;;5043812;28;20029;-75
2024/04/07 09:52:59;;;;;;;2.05;0.20;;;20.00;98.10;;;;;;5030003;28;20465;-72
2024/04/07 09:55:30;;;;;;;1.00;0.30;;;20.00;99.30;;;;;;5011904;28;20037;-69
2024/04/07 09:57:56;;;;;;;1.52;0.20;;;20.20;99.30;;;;;;5020911;28;20046;-72
2024/04/07 10:00:22;;;;;;;1.70;0.10;;;20.30;99.30;;;;;;5031250;28;20041;-72
2024/04/07 10:02:49;;;;;;;2.42;0.10;;;20.40;98.50;;;;;;5027089;28;20034;-67
2024/04/07 10:05:15;;;;;;;2.25;0.40;;;20.40;98.50;;;;;;5032732;28;20124;-72
2024/04/07 10:07:41;;;;;;;0.30;0.20;;;20.40;98.60;;;;;;5040361;28;20124;-73
2024/04/07 10:10:11;;;;;;;1.55;0.20;;;20.40;98.50;;;;;;5046219;28;20635;-72
2024/04/07 10:12:37;;;;;;;2.55;0.50;;;20.40;97.00;;;;;;5043927;28;20672;-72
2024/04/07 10:15:03;;;;;;;1.17;0.10;;;20.40;96.80;;;;;;5038888;28;20040;-71
2024/04/07 10:17:30;;;;;;;1.58;0.30;;;20.50;96.00;;;;;;5046786;28;20045;-71
2024/04/07 10:19:57;;;;;;;0.73;0.10;;;20.50;96.50;;;;;;5047284;28;20781;-72
2024/04/07 10:22:24;;;;;;;2.97;0.50;;;20.50;96.80;;;;;;5048759;28;20040;-71
2024/04/07 10:24:51;;;;;;;2.58;0.40;;;20.50;96.20;;;;;;5037385;28;20037;-73
2024/04/07 10:27:24;;;;;;;3.05;0.10;;;20.60;96.70;;;;;;5044443;28;20171;-71
2024/04/07 10:29:58;;;;;;;1.48;0.15;;;20.60;97.00;;;;;;5047101;28;20033;-69
2024/04/07 10:32:33;;;;;;;1.90;0.32;;;20.60;96.90;;;;;;5050498;28;20063;-71
2024/04/07 10:35:00;;;;;;;1.85;0.30;;;20.60;97.30;;;;;;5048438;28;20045;-74
2024/04/07 10:37:26;;;;;;;2.58;0.28;;;20.70;95.60;;;;;;5048946;28;20029;-74
2024/04/07 10:39:52;;;;;;;2.10;0.35;;;20.70;95.50;;;;;;5046930;28;20379;-70
2024/04/07 10:42:17;;;;;;;2.08;0.30;;;20.80;95.60;;;;;;5039682;28;20041;-71
2024/04/07 10:44:43;;;;;;;0.60;0.20;;;20.70;96.10;;;;;;5037250;28;20032;-72
2024/04/07 10:47:10;;;;;;;0.52;0.15;;;20.60;96.80;;;;;;5034130;28;20043;-73
2024/04/07 10:49:38;;;;;;;2.60;0.15;;;20.70;97.60;;;;;;5043253;28;20025;-71
2024/04/07 10:52:03;;;;;;;2.80;0.43;;;20.70;96.60;;;;;;5038496;28;20402;-72
2024/04/07 10:54:33;;;;;;;1.35;0.55;;;20.70;96.40;;;;;;5043182;28;20044;-72
2024/04/07 10:56:58;;;;;;;1.35;0.20;;;20.90;96.80;;;;;;5044352;28;20021;-74
2024/04/07 10:59:24;;;;;;;3.53;0.20;;;20.90;95.80;;;;;;5041396;28;20060;-71
2024/04/07 11:01:50;;;;;;;5.88;0.20;;;20.80;95.10;;;;;;5046074;28;20033;-72
2024/04/07 11:04:15;;;;;;;2.28;0.30;;;20.80;96.60;;;;;;5047405;28;20035;-72
2024/04/07 11:06:41;;;;;;;1.02;0.20;;;20.80;96.80;;;;;;5040078;28;20048;-71
2024/04/07 11:09:06;;;;;;;1.48;0.20;;;20.80;96.50;;;;;;5043841;28;20063;-71
2024/04/07 11:11:32;;;;;;;0.63;0.10;;;20.80;95.90;;;;;;5046004;28;20029;-71
2024/04/07 11:13:58;;;;;;;2.30;0.40;;;20.70;96.60;;;;;;5044313;28;20051;-72
2024/04/07 11:16:24;;;;;;;4.65;0.30;;;20.70;95.60;;;;;;5045767;28;20048;-71
2024/04/07 11:18:49;;;;;;;2.28;0.13;;;20.70;95.00;;;;;;5046431;28;20044;-72
2024/04/07 11:21:16;;;;;;;1.25;0.30;;;20.70;94.90;;;;;;5048522;28;20033;-74
2024/04/07 11:23:41;;;;;;;1.55;0.20;;;20.60;95.10;;;;;;5043702;28;20040;-71
2024/04/07 11:26:07;;;;;;;0.63;0.20;;;20.50;94.50;;;;;;5046651;28;20044;-71
2024/04/07 11:28:33;;;;;;;2.13;0.40;;;20.50;94.20;;;;;;5044566;28;20044;-72
2024/04/07 11:30:58;;;;;;;0.55;0.10;;;20.40;95.10;;;;;;5045950;28;20033;-73
2024/04/07 11:33:25;;;;;;;2.22;0.20;;;20.40;95.50;;;;;;5049931;28;20053;-71
2024/04/07 11:35:54;;;;;;;1.52;0.17;;;20.50;94.60;;;;;;5046728;28;20033;-68
2024/04/07 11:38:20;;;;;;;2.00;0.20;;;20.40;93.40;;;;;;5046448;28;20154;-72
2024/04/07 11:40:48;;;;;;;5.30;0.52;;;20.30;93.40;;;;;;5045177;28;20178;-74
2024/04/07 11:43:13;;;;;;;1.23;0.10;;;20.20;93.90;;;;;;5029961;28;20033;-72
2024/04/07 11:45:39;;;;;;;2.50;0.30;;;20.20;94.70;;;;;;5028450;28;20521;-71
2024/04/07 11:48:07;;;;;;;0.98;0.68;;;20.20;94.30;;;;;;5041506;28;20410;-72
2024/04/07 11:50:33;;;;;;;1.17;0.10;;;20.20;94.10;;;;;;5046220;28;20112;-71
2024/04/07 11:52:59;;;;;;;1.15;0.00;;;20.20;94.20;;;;;;5044082;28;20156;-72
2024/04/07 11:55:25;;;;;;;1.95;0.30;;;20.10;94.50;;;;;;5045081;28;20033;-71
2024/04/07 11:57:51;;;;;;;2.90;0.22;;;20.10;94.60;;;;;;5045792;28;20056;-71
2024/04/07 12:00:16;;;;;;;1.70;0.20;;;20.20;95.20;;;;;;5047279;28;20044;-71
2024/04/07 12:02:42;;;;;;;2.13;0.13;;;20.10;95.10;;;;;;5042605;28;20044;-70
2024/04/07 12:05:08;;;;;;;3.10;0.63;;;20.10;95.50;;;;;;5042735;28;20033;-71
2024/04/07 12:07:34;;;;;;;1.15;0.10;;;20.20;95.40;;;;;;5039076;28;20024;-74
2024/04/07 12:10:00;;;;;;;1.52;0.10;;;20.20;95.20;;;;;;5034732;28;20087;-70
2024/04/07 12:12:27;;;;;;;1.33;0.17;;;20.30;94.60;;;;;;5040365;28;20494;-71
2024/04/07 12:14:52;;;;;;;0.40;0.03;;;20.20;94.40;;;;;;5026865;28;20116;-72
2024/04/07 12:17:19;;;;;;;1.02;0.50;;;20.20;94.70;;;;;;5039598;28;20159;-70
2024/04/07 12:19:44;;;;;;;2.55;0.20;;;20.20;94.20;;;;;;5039332;28;20032;-73
2024/04/07 12:22:18;;;;;;;0.77;0.10;;;20.20;94.30;;;;;;5046559;28;20516;-74
2024/04/07 12:24:44;;;;;;;3.80;0.17;;;20.20;94.20;;;;;;5036743;28;20116;-72
2024/04/07 12:27:10;;;;;;;1.65;0.13;;;20.20;94.20;;;;;;5040070;28;20033;-72
2024/04/07 12:29:36;;;;;;;0.40;0.20;;;20.20;94.50;;;;;;5025693;28;20276;-74
2024/04/07 12:32:02;;;;;;;2.28;0.20;;;20.20;94.40;;;;;;5048814;28;20045;-74
2024/04/07 12:34:28;;;;;;;1.55;0.13;;;20.20;94.50;;;;;;5041783;28;20040;-73
2024/04/07 12:36:54;;;;;;;1.40;0.47;;;20.20;94.90;;;;;;5045313;28;20037;-73
2024/04/07 12:39:19;;;;;;;1.00;0.20;;;20.20;95.00;;;;;;5035277;28;20037;-73
2024/04/07 12:41:45;;;;;;;0.95;0.10;;;20.30;94.90;;;;;;5027283;28;20383;-71
2024/04/07 12:44:11;;;;;;;0.98;0.10;;;20.30;94.60;;;;;;5021559;28;20064;-75
2024/04/07 12:46:37;;;;;;;2.20;0.22;;;20.30;94.80;;;;;;5039372;28;20037;-75
2024/04/07 12:49:03;;;;;;;0.50;0.10;;;20.30;94.50;;;;;;5042884;28;20083;-75